createdAt,value
2023-03-21T00:01:50.613Z,10.02
2023-03-21T00:04:17.904Z,10.40
2023-03-21T00:06:45.286Z,10.40
2023-03-21T00:09:12.830Z,10.13
2023-03-21T00:11:40.602Z,10.18
2023-03-21T00:14:08.907Z,9.10
2023-03-21T00:16:36.811Z,9.88
2023-03-21T00:19:07.450Z,9.77
2023-03-21T00:21:55.568Z,10.10
2023-03-21T00:24:25.927Z,10.18
2023-03-21T00:26:53.960Z,8.32
2023-03-21T00:29:21.346Z,10.05
2023-03-21T00:31:48.698Z,10.38
2023-03-21T00:34:17.705Z,9.20
2023-03-21T00:36:50.057Z,9.18
2023-03-21T00:39:17.231Z,9.57
2023-03-21T00:41:44.460Z,9.73
2023-03-21T00:44:16.150Z,9.18
2023-03-21T00:46:51.663Z,9.30
2023-03-21T00:49:27.930Z,9.05
2023-03-21T00:51:57.308Z,9.38
2023-03-21T00:54:27.094Z,9.38
2023-03-21T00:56:54.417Z,8.98
2023-03-21T00:59:21.628Z,8.48
2023-03-21T01:01:48.817Z,9.88
2023-03-21T01:04:16.987Z,8.82
2023-03-21T01:06:45.135Z,8.88
2023-03-21T01:09:19.116Z,9.23
2023-03-21T01:11:46.661Z,9.40
2023-03-21T01:14:22.352Z,9.13
2023-03-21T01:16:51.710Z,8.57
2023-03-21T01:19:29.225Z,8.25
2023-03-21T01:22:00.446Z,8.23
2023-03-21T01:24:27.661Z,8.57
2023-03-21T01:26:54.945Z,9.32
2023-03-21T01:29:22.203Z,8.52
2023-03-21T01:31:49.450Z,9.27
2023-03-21T01:34:16.642Z,8.30
2023-03-21T01:36:43.956Z,8.30
2023-03-21T01:39:11.496Z,9.55
2023-03-21T01:41:43.289Z,8.23
2023-03-21T01:44:20.850Z,8.93
2023-03-21T01:49:38.686Z,8.95
2023-03-21T01:52:13.078Z,8.50
2023-03-21T01:54:41.693Z,8.43
2023-03-21T01:57:10.898Z,8.38
2023-03-21T01:59:38.109Z,8.73
2023-03-21T02:02:09.910Z,8.50
2023-03-21T02:04:38.510Z,7.60
2023-03-21T02:07:08.152Z,9.20
2023-03-21T02:09:36.010Z,7.80
2023-03-21T02:12:03.462Z,7.82
2023-03-21T02:14:33.868Z,8.95
2023-03-21T02:17:30.765Z,7.55
2023-03-21T02:20:22.271Z,8.18
2023-03-21T02:23:07.472Z,8.73
2023-03-21T02:25:34.640Z,8.40
2023-03-21T02:28:04.970Z,8.32
2023-03-21T02:30:39.919Z,8.18
2023-03-21T02:33:16.653Z,7.72
2023-03-21T02:35:52.357Z,7.85
2023-03-21T02:38:30.304Z,7.75
2023-03-21T02:41:03.448Z,7.97
2023-03-21T02:44:03.254Z,7.90
2023-03-21T02:46:45.462Z,7.93
2023-03-21T02:49:25.029Z,8.07
2023-03-21T02:52:00.287Z,7.13
2023-03-21T02:54:47.233Z,8.02
2023-03-21T02:57:16.594Z,7.78
2023-03-21T02:59:53.186Z,7.43
2023-03-21T03:02:23.370Z,7.45
2023-03-21T03:04:50.666Z,7.95
2023-03-21T03:07:17.824Z,9.02
2023-03-21T03:10:03.233Z,8.00
2023-03-21T03:12:33.594Z,7.70
2023-03-21T03:15:06.528Z,8.15
2023-03-21T03:17:34.342Z,7.68
2023-03-21T03:20:16.640Z,7.72
2023-03-21T03:23:02.968Z,8.32
2023-03-21T03:25:50.424Z,7.68
2023-03-21T03:28:23.796Z,7.15
2023-03-21T03:31:07.505Z,7.60
2023-03-21T03:33:38.112Z,7.75
2023-03-21T03:36:07.174Z,8.20
2023-03-21T03:38:36.342Z,7.35
2023-03-21T03:41:05.381Z,7.30
2023-03-21T03:43:54.940Z,7.15
2023-03-21T03:46:29.280Z,7.93
2023-03-21T03:48:59.032Z,7.15
2023-03-21T03:51:32.291Z,7.53
2023-03-21T03:54:02.057Z,7.88
2023-03-21T03:56:29.747Z,7.10
2023-03-21T03:58:57.550Z,7.78
2023-03-21T04:01:24.808Z,8.27
2023-03-21T04:04:03.574Z,7.15
2023-03-21T04:06:38.569Z,7.10
2023-03-21T04:09:18.728Z,7.40
2023-03-21T04:11:47.756Z,7.53
2023-03-21T04:14:15.356Z,6.90
2023-03-21T04:16:42.556Z,7.88
2023-03-21T04:19:09.788Z,7.40
2023-03-21T04:21:37.135Z,7.15
2023-03-21T04:24:04.433Z,7.47
2023-03-21T04:26:33.622Z,6.80
2023-03-21T04:29:01.263Z,7.25
2023-03-21T04:31:31.007Z,6.85
2023-03-21T04:33:59.617Z,7.30
2023-03-21T04:36:38.725Z,7.05
2023-03-21T04:39:12.315Z,6.55
2023-03-21T04:41:40.701Z,7.15
2023-03-21T04:44:08.073Z,6.82
2023-03-21T04:46:35.766Z,6.90
2023-03-21T04:49:03.439Z,6.50
2023-03-21T04:51:30.829Z,7.07
2023-03-21T04:53:58.047Z,6.78
2023-03-21T04:56:32.088Z,6.78
2023-03-21T04:59:00.265Z,7.45
2023-03-21T05:01:30.660Z,7.45
2023-03-21T05:03:59.148Z,6.90
2023-03-21T05:06:27.914Z,7.28
2023-03-21T05:09:00.214Z,6.10
2023-03-21T05:11:28.315Z,6.68
2023-03-21T05:13:55.594Z,6.63
2023-03-21T05:16:26.906Z,6.65
2023-03-21T05:18:55.468Z,6.50
2023-03-21T05:21:23.001Z,6.72
2023-03-21T05:23:58.414Z,6.20
2023-03-21T05:26:25.880Z,6.78
2023-03-21T05:28:53.329Z,6.65
2023-03-21T05:31:20.797Z,7.35
2023-03-21T05:33:48.663Z,7.25
2023-03-21T05:36:16.409Z,7.25
2023-03-21T05:38:46.045Z,8.07
2023-03-21T05:41:19.203Z,8.27
2023-03-21T05:43:46.577Z,8.65
2023-03-21T05:46:13.845Z,8.68
2023-03-21T05:48:41.053Z,8.75
2023-03-21T05:51:08.222Z,8.68
2023-03-21T05:53:35.460Z,9.50
2023-03-21T05:56:03.122Z,9.23
2023-03-21T05:58:30.603Z,8.75
2023-03-21T06:00:57.833Z,8.23
2023-03-21T06:03:25.445Z,9.75
2023-03-21T06:05:52.724Z,8.20
2023-03-21T06:08:20.414Z,7.95
2023-03-21T06:10:47.750Z,8.32
2023-03-21T06:13:15.909Z,8.63
2023-03-21T06:15:43.166Z,9.00
2023-03-21T06:18:10.320Z,8.80
2023-03-21T06:20:37.501Z,9.88
2023-03-21T06:23:04.714Z,9.38
2023-03-21T06:25:31.908Z,9.02
2023-03-21T06:27:59.068Z,8.90
2023-03-21T06:30:26.414Z,9.02
2023-03-21T06:32:54.984Z,9.27
2023-03-21T06:35:22.178Z,8.60
2023-03-21T06:37:49.537Z,8.40
2023-03-21T06:40:16.932Z,9.20
2023-03-21T06:42:44.128Z,9.13
2023-03-21T06:45:11.542Z,9.48
2023-03-21T06:47:38.934Z,8.93
2023-03-21T06:50:07.096Z,10.05
2023-03-21T06:52:34.408Z,10.32
2023-03-21T06:55:01.695Z,10.75
2023-03-21T06:57:29.004Z,10.15
2023-03-21T06:59:56.257Z,10.07
2023-03-21T07:02:23.490Z,9.63
2023-03-21T07:04:50.940Z,10.13
2023-03-21T07:07:18.213Z,10.25
2023-03-21T07:09:45.442Z,9.65
2023-03-21T07:12:12.608Z,10.10
2023-03-21T07:14:40.248Z,9.88
2023-03-21T07:17:07.463Z,9.88
2023-03-21T07:19:34.688Z,9.25
2023-03-21T07:22:01.894Z,9.70
2023-03-21T07:24:29.148Z,10.95
2023-03-21T07:26:56.449Z,10.95
2023-03-21T07:29:24.953Z,11.32
2023-03-21T07:31:52.234Z,12.52
2023-03-21T07:34:19.496Z,12.57
2023-03-21T07:36:46.748Z,13.23
2023-03-21T07:39:13.974Z,12.75
2023-03-21T07:41:41.220Z,11.98
2023-03-21T07:44:08.463Z,12.40
2023-03-21T07:46:35.875Z,13.93
2023-03-21T07:49:03.102Z,13.75
2023-03-21T07:51:30.714Z,16.85
2023-03-21T07:53:58.424Z,16.65
2023-03-21T07:56:25.930Z,16.63
2023-03-21T07:58:53.246Z,16.13
2023-03-21T08:01:21.972Z,16.02
2023-03-21T08:03:51.914Z,16.48
2023-03-21T08:06:19.209Z,15.15
2023-03-21T08:08:46.762Z,16.85
2023-03-21T08:11:14.439Z,16.02
2023-03-21T08:13:41.854Z,15.98
2023-03-21T08:16:09.290Z,16.10
2023-03-21T08:18:36.460Z,15.52
2023-03-21T08:21:03.978Z,16.48
2023-03-21T08:23:31.237Z,16.42
2023-03-21T08:25:58.476Z,16.75
2023-03-21T08:28:25.789Z,17.08
2023-03-21T08:30:53.253Z,16.13
2023-03-21T08:33:21.013Z,15.73
2023-03-21T08:35:48.310Z,16.13
2023-03-21T08:38:16.088Z,14.90
2023-03-21T08:40:43.365Z,14.98
2023-03-21T08:43:10.526Z,16.23
2023-03-21T08:45:38.128Z,15.60
2023-03-21T08:48:06.320Z,16.08
2023-03-21T08:50:33.602Z,15.45
2023-03-21T08:53:00.849Z,16.23
2023-03-21T08:55:28.212Z,15.27
2023-03-21T08:57:55.793Z,14.48
2023-03-21T09:00:23.100Z,14.48
2023-03-21T09:02:52.069Z,14.07
2023-03-21T09:05:19.560Z,15.13
2023-03-21T09:07:46.786Z,13.95
2023-03-21T09:10:21.081Z,12.77
2023-03-21T09:12:49.864Z,12.13
2023-03-21T09:15:18.374Z,13.50
2023-03-21T09:17:50.362Z,12.00
2023-03-21T09:20:31.043Z,12.65
2023-03-21T09:22:59.159Z,13.05
2023-03-21T09:25:29.565Z,13.25
2023-03-21T09:27:58.174Z,13.13
2023-03-21T09:30:26.416Z,13.07
2023-03-21T09:32:55.752Z,11.93
2023-03-21T09:35:24.444Z,12.35
2023-03-21T09:37:51.858Z,12.50
2023-03-21T09:40:21.120Z,11.68
2023-03-21T09:43:07.360Z,12.70
2023-03-21T09:45:41.827Z,12.13
2023-03-21T09:48:17.492Z,12.82
2023-03-21T09:50:45.196Z,12.80
2023-03-21T09:53:16.709Z,12.52
2023-03-21T09:55:44.562Z,12.98
2023-03-21T09:58:12.010Z,11.23
2023-03-21T10:00:42.026Z,11.93
2023-03-21T10:03:29.614Z,10.80
2023-03-21T10:05:58.643Z,12.35
2023-03-21T10:08:30.798Z,12.45
2023-03-21T10:11:01.686Z,11.15
2023-03-21T10:13:30.490Z,11.25
2023-03-21T10:15:58.699Z,10.82
2023-03-21T10:18:27.796Z,10.35
2023-03-21T10:20:55.066Z,11.65
2023-03-21T10:23:26.419Z,11.25
2023-03-21T10:25:56.070Z,11.60
2023-03-21T10:28:24.963Z,10.18
2023-03-21T10:30:54.133Z,10.88
2023-03-21T10:33:24.195Z,10.80
2023-03-21T10:35:57.405Z,10.23
2023-03-21T10:38:26.450Z,9.85
2023-03-21T10:40:54.118Z,10.15
2023-03-21T10:43:30.543Z,10.40
2023-03-21T10:45:58.245Z,10.43
2023-03-21T10:48:26.222Z,9.60
2023-03-21T10:50:55.674Z,9.25
2023-03-21T10:53:28.467Z,10.48
2023-03-21T10:55:58.134Z,9.73
2023-03-21T10:58:29.764Z,9.93
2023-03-21T11:01:02.585Z,10.30
2023-03-21T11:03:43.607Z,10.10
2023-03-21T11:06:28.191Z,10.45
2023-03-21T11:08:57.769Z,10.38
2023-03-21T11:11:29.309Z,10.48
2023-03-21T11:14:07.233Z,9.15
2023-03-21T11:16:41.790Z,8.77
2023-03-21T11:19:15.351Z,13.50
2023-03-21T11:21:42.831Z,25.75
2023-03-21T11:24:19.732Z,27.70
2023-03-21T11:26:49.624Z,22.33
2023-03-21T11:29:36.804Z,18.63
2023-03-21T11:32:10.104Z,16.63
2023-03-21T11:34:46.478Z,11.88
2023-03-21T11:37:26.329Z,12.52
2023-03-21T11:39:58.101Z,11.05
2023-03-21T11:42:33.073Z,9.95
2023-03-21T11:45:02.073Z,12.13
2023-03-21T11:47:29.747Z,15.05
2023-03-21T11:50:04.624Z,11.00
2023-03-21T11:55:35.233Z,8.40
2023-03-21T11:58:13.428Z,7.50
2023-03-21T12:00:52.105Z,9.23
2023-03-21T12:03:41.474Z,13.73
2023-03-21T12:06:20.514Z,12.55
2023-03-21T12:08:59.730Z,13.20
2023-03-21T12:11:39.224Z,15.05
2023-03-21T12:14:10.853Z,15.55
2023-03-21T12:16:50.292Z,16.30
2023-03-21T12:19:23.308Z,14.55
2023-03-21T12:21:59.528Z,15.20
2023-03-21T12:24:37.490Z,15.85
2023-03-21T12:27:27.700Z,15.15
2023-03-21T12:30:21.404Z,13.80
2023-03-21T12:33:05.363Z,13.75
2023-03-21T12:36:04.909Z,13.35
2023-03-21T12:38:44.282Z,13.57
2023-03-21T12:41:27.356Z,13.32
2023-03-21T12:44:15.289Z,13.07
2023-03-21T12:46:45.821Z,12.40
2023-03-21T12:49:23.039Z,13.63
2023-03-21T12:51:52.314Z,14.15
2023-03-21T12:54:26.796Z,13.50
2023-03-21T12:56:57.030Z,13.30
2023-03-21T12:59:29.586Z,12.57
2023-03-21T13:01:58.821Z,12.73
2023-03-21T13:04:35.251Z,12.07
2023-03-21T13:07:04.133Z,11.40
2023-03-21T13:09:41.939Z,11.95
2023-03-21T13:12:18.415Z,11.65
2023-03-21T13:14:56.946Z,11.55
2023-03-21T13:17:28.036Z,11.43
2023-03-21T13:19:59.288Z,11.30
2023-03-21T13:22:30.334Z,10.80
2023-03-21T13:25:08.532Z,10.77
2023-03-21T13:27:37.135Z,10.98
2023-03-21T13:30:19.850Z,10.48
2023-03-21T13:32:49.269Z,10.95
2023-03-21T13:35:21.218Z,10.63
2023-03-21T13:37:57.747Z,10.35
2023-03-21T13:40:29.927Z,10.55
2023-03-21T13:43:00.936Z,10.40
2023-03-21T13:45:44.953Z,10.95
2023-03-21T13:48:32.540Z,9.95
2023-03-21T13:51:04.548Z,10.55
2023-03-21T13:53:33.162Z,10.48
2023-03-21T13:56:08.176Z,10.27
2023-03-21T13:58:51.625Z,9.30
2023-03-21T14:01:23.535Z,9.65
2023-03-21T14:03:50.936Z,8.80
2023-03-21T14:06:18.701Z,9.75
2023-03-21T14:08:48.206Z,8.60
2023-03-21T14:11:18.606Z,9.27
2023-03-21T14:13:51.187Z,8.50
2023-03-21T14:16:19.957Z,8.57
2023-03-21T14:18:55.118Z,8.82
2023-03-21T14:23:59.688Z,8.65
2023-03-21T14:26:31.298Z,8.07
2023-03-21T14:28:58.568Z,7.60
2023-03-21T14:31:27.111Z,7.88
2023-03-21T14:33:56.593Z,8.48
2023-03-21T14:36:28.414Z,7.75
2023-03-21T14:39:03.787Z,7.57
2023-03-21T14:41:31.581Z,7.70
2023-03-21T14:44:12.599Z,7.82
2023-03-21T14:46:41.873Z,7.63
2023-03-21T14:49:28.863Z,7.80
2023-03-21T14:51:57.439Z,8.25
2023-03-21T14:54:27.268Z,8.52
2023-03-21T14:57:00.732Z,7.78
2023-03-21T14:59:32.060Z,8.15
2023-03-21T15:02:00.456Z,7.25
2023-03-21T15:04:27.678Z,7.93
2023-03-21T15:06:59.463Z,8.77
2023-03-21T15:09:28.160Z,10.55
2023-03-21T15:11:56.503Z,9.85
2023-03-21T15:14:34.387Z,9.85
2023-03-21T15:17:04.019Z,10.82
2023-03-21T15:19:35.785Z,10.50
2023-03-21T15:22:07.035Z,9.82
2023-03-21T15:24:40.409Z,10.25
2023-03-21T15:27:18.806Z,9.15
2023-03-21T15:29:46.529Z,8.77
2023-03-21T15:32:16.063Z,9.27
2023-03-21T15:34:43.652Z,10.20
2023-03-21T15:37:17.079Z,9.30
2023-03-21T15:39:44.411Z,8.68
2023-03-21T15:42:29.002Z,9.38
2023-03-21T15:44:57.691Z,8.20
2023-03-21T15:47:39.660Z,8.52
2023-03-21T15:50:11.764Z,9.13
2023-03-21T15:52:39.121Z,8.23
2023-03-21T15:55:17.822Z,8.90
2023-03-21T15:57:51.737Z,8.65
2023-03-21T16:00:19.951Z,8.52
2023-03-21T16:02:47.893Z,7.72
2023-03-21T16:05:17.761Z,7.93
2023-03-21T16:07:48.616Z,8.85
2023-03-21T16:10:30.002Z,7.93
2023-03-21T16:12:58.263Z,8.18
2023-03-21T16:15:26.517Z,8.18
2023-03-21T16:18:01.466Z,8.93
2023-03-21T16:20:32.635Z,8.27
2023-03-21T16:22:59.935Z,7.63
2023-03-21T16:25:27.309Z,7.72
2023-03-21T16:27:54.562Z,8.30
2023-03-21T16:30:22.334Z,8.05
2023-03-21T16:32:50.617Z,9.52
2023-03-21T16:35:18.158Z,8.50
2023-03-21T16:37:45.773Z,7.10
2023-03-21T16:40:17.384Z,8.45
2023-03-21T16:42:45.490Z,8.43
2023-03-21T16:45:12.939Z,8.40
2023-03-21T16:47:40.303Z,8.32
2023-03-21T16:50:26.798Z,7.55
2023-03-21T16:52:57.555Z,7.55
2023-03-21T16:55:25.686Z,7.57
2023-03-21T16:57:53.709Z,7.78
2023-03-21T17:00:23.199Z,7.80
2023-03-21T17:02:54.903Z,7.40
2023-03-21T17:05:23.149Z,7.32
2023-03-21T17:07:50.472Z,7.82
2023-03-21T17:10:19.375Z,7.80
2023-03-21T17:12:46.790Z,8.65
2023-03-21T17:15:14.680Z,7.97
2023-03-21T17:17:42.945Z,7.40
2023-03-21T17:20:33.333Z,8.38
2023-03-21T17:23:01.034Z,7.90
2023-03-21T17:25:28.464Z,7.07
2023-03-21T17:27:56.243Z,8.18
2023-03-21T17:30:30.977Z,7.13
2023-03-21T17:32:58.843Z,9.00
2023-03-21T17:35:26.978Z,8.18
2023-03-21T17:37:54.524Z,8.30
2023-03-21T17:40:23.706Z,7.60
2023-03-21T17:42:51.882Z,8.52
2023-03-21T17:45:19.226Z,7.43
2023-03-21T17:47:46.513Z,7.78
2023-03-21T17:50:18.616Z,6.82
2023-03-21T17:52:46.148Z,7.30
2023-03-21T17:55:14.281Z,7.28
2023-03-21T17:57:41.507Z,8.07
2023-03-21T18:00:12.598Z,6.28
2023-03-21T18:02:40.986Z,7.30
2023-03-21T18:05:09.602Z,5.93
2023-03-21T18:08:07.913Z,5.80
2023-03-21T18:10:26.330Z,6.28
2023-03-21T18:12:56.633Z,6.78
2023-03-21T18:15:25.295Z,6.03
2023-03-21T18:17:52.999Z,6.57
2023-03-21T18:20:22.556Z,6.40
2023-03-21T18:22:52.220Z,6.22
2023-03-21T18:25:19.646Z,7.05
2023-03-21T18:28:09.488Z,6.72
2023-03-21T18:30:56.320Z,6.30
2023-03-21T18:33:21.759Z,5.80
2023-03-21T18:35:53.810Z,6.32
2023-03-21T18:38:26.021Z,6.25
2023-03-21T18:40:53.224Z,5.70
2023-03-21T18:44:01.125Z,5.80
2023-03-21T18:46:08.650Z,5.85
2023-03-21T18:48:36.179Z,6.55
2023-03-21T18:51:03.632Z,5.63
2023-03-21T18:53:31.156Z,5.68
2023-03-21T18:55:58.680Z,5.72
2023-03-21T18:58:26.045Z,6.03
2023-03-21T19:00:53.866Z,5.35
2023-03-21T19:03:35.252Z,6.35
2023-03-21T19:06:04.866Z,5.93
2023-03-21T19:08:34.555Z,5.05
2023-03-21T19:11:05.967Z,5.15
2023-03-21T19:13:34.127Z,5.63
2023-03-21T19:16:02.795Z,5.50
2023-03-21T19:18:53.030Z,6.07
2023-03-21T19:21:18.948Z,5.38
2023-03-21T19:26:33.844Z,5.80
2023-03-21T19:29:01.198Z,5.90
2023-03-21T19:31:28.428Z,4.88
2023-03-21T19:33:55.731Z,5.40
2023-03-21T19:36:23.552Z,5.70
2023-03-21T19:38:51.237Z,5.55
2023-03-21T19:41:20.233Z,5.03
2023-03-21T19:43:54.679Z,5.10
2023-03-21T19:46:25.156Z,5.30
2023-03-21T19:48:56.162Z,5.28
2023-03-21T19:51:30.156Z,5.07
2023-03-21T19:54:01.357Z,5.10
2023-03-21T19:56:28.844Z,5.35
2023-03-21T19:58:56.338Z,5.88
2023-03-21T20:01:24.667Z,5.30
2023-03-21T20:03:52.250Z,5.25
2023-03-21T20:06:19.807Z,5.35
2023-03-21T20:09:27.177Z,5.07
2023-03-21T20:11:34.641Z,5.13
2023-03-21T20:14:05.356Z,5.10
2023-03-21T20:16:35.815Z,4.70
2023-03-21T20:19:08.914Z,5.80
2023-03-21T20:21:46.212Z,5.38
2023-03-21T20:24:16.985Z,5.32
2023-03-21T20:26:45.199Z,4.75
2023-03-21T20:30:07.481Z,5.13
2023-03-21T20:32:01.478Z,6.07
2023-03-21T20:34:30.438Z,5.10
2023-03-21T20:36:58.377Z,5.53
2023-03-21T20:39:26.906Z,5.72
2023-03-21T20:41:55.299Z,5.63
2023-03-21T20:47:09.814Z,5.07
2023-03-21T20:49:37.216Z,5.82
2023-03-21T20:54:54.764Z,4.88
2023-03-21T20:57:22.219Z,5.32
2023-03-21T20:59:50.066Z,5.00
2023-03-21T21:02:17.460Z,5.55
2023-03-21T21:05:11.866Z,5.35
2023-03-21T21:07:32.295Z,5.05
2023-03-21T21:09:59.654Z,4.82
2023-03-21T21:12:28.525Z,5.28
2023-03-21T21:14:56.756Z,4.65
2023-03-21T21:17:42.856Z,5.78
2023-03-21T21:20:20.395Z,5.32
2023-03-21T21:22:59.054Z,5.45
2023-03-21T21:25:27.039Z,4.97
2023-03-21T21:27:54.189Z,5.50
2023-03-21T21:30:21.534Z,5.20
2023-03-21T21:32:49.543Z,5.40
2023-03-21T21:35:19.386Z,5.25
2023-03-21T21:37:47.174Z,5.97
2023-03-21T21:40:16.506Z,5.40
2023-03-21T21:42:44.486Z,5.20
2023-03-21T21:45:12.639Z,5.53
2023-03-21T21:47:40.076Z,6.07
2023-03-21T21:50:08.981Z,5.50
2023-03-21T21:52:37.359Z,6.60
2023-03-21T21:55:06.620Z,6.20
2023-03-21T21:57:34.846Z,6.05
2023-03-21T22:00:06.116Z,5.93
2023-03-21T22:02:33.399Z,7.97
2023-03-21T22:05:00.613Z,6.88
2023-03-21T22:07:27.963Z,6.35
2023-03-21T22:09:55.178Z,7.20
2023-03-21T22:12:22.452Z,7.28
2023-03-21T22:14:49.618Z,6.93
2023-03-21T22:17:16.963Z,6.60
2023-03-21T22:19:52.720Z,6.97
2023-03-21T22:22:26.559Z,6.78
2023-03-21T22:24:56.341Z,6.75
2023-03-21T22:27:23.902Z,6.80
2023-03-21T22:29:51.228Z,6.60
2023-03-21T22:32:19.177Z,6.63
2023-03-21T22:34:46.405Z,7.90
2023-03-21T22:37:13.869Z,6.45
2023-03-21T22:39:41.275Z,6.93
2023-03-21T22:42:08.453Z,7.18
2023-03-21T22:44:36.047Z,7.45
2023-03-21T22:47:07.615Z,7.18
2023-03-21T22:49:34.822Z,7.15
2023-03-21T22:52:03.675Z,7.00
2023-03-21T22:54:31.117Z,6.75
2023-03-21T22:56:58.380Z,7.20
2023-03-21T22:59:26.415Z,7.13
2023-03-21T23:01:54.600Z,8.43
2023-03-21T23:04:21.912Z,6.50
2023-03-21T23:06:49.205Z,7.32
2023-03-21T23:09:17.552Z,6.90
2023-03-21T23:11:48.880Z,6.70
2023-03-21T23:14:20.838Z,7.20
2023-03-21T23:16:49.658Z,7.05
2023-03-21T23:19:17.489Z,6.40
2023-03-21T23:21:44.723Z,7.57
2023-03-21T23:24:11.972Z,6.63
2023-03-21T23:26:39.700Z,7.03
2023-03-21T23:29:10.496Z,6.88
2023-03-21T23:31:37.819Z,6.90
2023-03-21T23:34:05.297Z,6.63
2023-03-21T23:36:32.511Z,6.75
2023-03-21T23:38:59.736Z,6.60
2023-03-21T23:41:26.998Z,6.60
2023-03-21T23:43:55.028Z,5.85
2023-03-21T23:46:22.425Z,6.45
2023-03-21T23:48:49.764Z,6.10
2023-03-21T23:51:18.799Z,6.53
2023-03-21T23:53:46.702Z,6.47
2023-03-21T23:56:18.990Z,5.78
2023-03-21T23:58:46.574Z,6.47
